Terminal Aerodrome Forecast
Issued by NWS

Home | Current Version | Previous Version | Text Only | Print | Product List | Glossary On
Versions: 1 2 3 4 5 6 7 8 9 10 11 12 13 14 15 16 17 18 19
000
FTUS43 KDDC 201120
TAFHYS
TAF
KHYS 201120Z 2012/2112 18012KT 5SM BR BKN200
     FM201300 22010KT P6SM BKN200
     FM201800 32017G25KT P6SM FEW200
     FM202300 33011KT P6SM FEW200=

USA.gov is the U.S. government's official web portal to all federal, state and local government web resources and services.